sensor_id;sensor_type;location;lat;lon;timestamp;pressure;altitude;pressure_sealevel;temperature;humidity
11444;BME280;5778;47.856;12.154;2023-04-01T00:00:05;95142.00;;;9.32;100.00
11444;BME280;5778;47.856;12.154;2023-04-01T00:02:39;95146.78;;;9.25;100.00
11444;BME280;5778;47.856;12.154;2023-04-01T00:05:07;95138.59;;;9.21;100.00
11444;BME280;5778;47.856;12.154;2023-04-01T00:07:35;95131.97;;;9.19;100.00
11444;BME280;5778;47.856;12.154;2023-04-01T00:10:03;95137.28;;;9.14;100.00
11444;BME280;5778;47.856;12.154;2023-04-01T00:12:29;95139.91;;;9.19;100.00
11444;BME280;5778;47.856;12.154;2023-04-01T00:15:10;95141.25;;;9.21;100.00
11444;BME280;5778;47.856;12.154;2023-04-01T00:17:39;95142.03;;;9.27;100.00
11444;BME280;5778;47.856;12.154;2023-04-01T00:20:07;95157.91;;;9.37;100.00
11444;BME280;5778;47.856;12.154;2023-04-01T00:22:34;95151.53;;;9.38;100.00
11444;BME280;5778;47.856;12.154;2023-04-01T00:28:08;95154.44;;;9.36;100.00
11444;BME280;5778;47.856;12.154;2023-04-01T00:30:35;95164.81;;;9.28;100.00
11444;BME280;5778;47.856;12.154;2023-04-01T00:33:27;95164.34;;;9.16;100.00
11444;BME280;5778;47.856;12.154;2023-04-01T00:35:55;95178.72;;;9.00;100.00
11444;BME280;5778;47.856;12.154;2023-04-01T00:38:24;95185.09;;;8.89;100.00
11444;BME280;5778;47.856;12.154;2023-04-01T00:40:57;95173.19;;;8.86;100.00
11444;BME280;5778;47.856;12.154;2023-04-01T00:46:39;95162.09;;;8.69;100.00
11444;BME280;5778;47.856;12.154;2023-04-01T00:49:08;95172.69;;;8.64;100.00
11444;BME280;5778;47.856;12.154;2023-04-01T00:51:37;95161.28;;;8.59;100.00
11444;BME280;5778;47.856;12.154;2023-04-01T00:57:29;95139.59;;;8.42;100.00
11444;BME280;5778;47.856;12.154;2023-04-01T00:59:57;95117.34;;;8.33;100.00
11444;BME280;5778;47.856;12.154;2023-04-01T01:02:24;95108.63;;;8.27;100.00
11444;BME280;5778;47.856;12.154;2023-04-01T01:08:01;95108.59;;;8.07;100.00
11444;BME280;5778;47.856;12.154;2023-04-01T01:10:32;95110.72;;;8.05;100.00
11444;BME280;5778;47.856;12.154;2023-04-01T01:13:22;95113.91;;;8.02;100.00
11444;BME280;5778;47.856;12.154;2023-04-01T01:15:57;95115.22;;;7.95;100.00
11444;BME280;5778;47.856;12.154;2023-04-01T01:18:31;95103.84;;;7.94;100.00
11444;BME280;5778;47.856;12.154;2023-04-01T01:21:34;95100.38;;;7.84;100.00
11444;BME280;5778;47.856;12.154;2023-04-01T01:27:32;95111.53;;;7.86;100.00
11444;BME280;5778;47.856;12.154;2023-04-01T01:30:22;95111.53;;;7.86;100.00
11444;BME280;5778;47.856;12.154;2023-04-01T01:33:06;95112.59;;;7.80;100.00
11444;BME280;5778;47.856;12.154;2023-04-01T01:35:42;95110.47;;;7.82;100.00
11444;BME280;5778;47.856;12.154;2023-04-01T01:38:19;95107.81;;;7.82;100.00
11444;BME280;5778;47.856;12.154;2023-04-01T01:40:57;95114.19;;;7.86;100.00
11444;BME280;5778;47.856;12.154;2023-04-01T01:47:12;95102.00;;;7.80;100.00
11444;BME280;5778;47.856;12.154;2023-04-01T01:49:41;95094.84;;;7.80;100.00
11444;BME280;5778;47.856;12.154;2023-04-01T01:52:11;95091.41;;;7.80;100.00
11444;BME280;5778;47.856;12.154;2023-04-01T01:58:00;95096.16;;;7.78;100.00
11444;BME280;5778;47.856;12.154;2023-04-01T02:00:29;95105.16;;;7.77;100.00
11444;BME280;5778;47.856;12.154;2023-04-01T02:03:00;95114.69;;;7.78;100.00
11444;BME280;5778;47.856;12.154;2023-04-01T02:05:29;95113.91;;;7.77;100.00
11444;BME280;5778;47.856;12.154;2023-04-01T02:08:07;95122.09;;;7.76;100.00
11444;BME280;5778;47.856;12.154;2023-04-01T02:10:39;95129.78;;;7.77;100.00
11444;BME280;5778;47.856;12.154;2023-04-01T02:13:29;95134.00;;;7.78;100.00
11444;BME280;5778;47.856;12.154;2023-04-01T02:16:00;95126.06;;;7.83;100.00
11444;BME280;5778;47.856;12.154;2023-04-01T02:18:33;95127.41;;;7.86;100.00
11444;BME280;5778;47.856;12.154;2023-04-01T02:21:03;95129.50;;;7.84;100.00
11444;BME280;5778;47.856;12.154;2023-04-01T02:23:34;95126.63;;;8.10;100.00
11444;BME280;5778;47.856;12.154;2023-04-01T02:26:03;95122.13;;;8.21;100.00
11444;BME280;5778;47.856;12.154;2023-04-01T02:28:32;95122.94;;;8.26;100.00
11444;BME280;5778;47.856;12.154;2023-04-01T02:31:00;95118.97;;;8.24;100.00
11444;BME280;5778;47.856;12.154;2023-04-01T02:33:46;95123.47;;;8.23;100.00
11444;BME280;5778;47.856;12.154;2023-04-01T02:36:14;95123.19;;;8.20;100.00
11444;BME280;5778;47.856;12.154;2023-04-01T02:38:44;95122.66;;;8.18;100.00
11444;BME280;5778;47.856;12.154;2023-04-01T02:41:12;95126.31;;;8.17;100.00
11444;BME280;5778;47.856;12.154;2023-04-01T02:44:03;95127.41;;;8.16;100.00
11444;BME280;5778;47.856;12.154;2023-04-01T02:46:30;95141.97;;;8.18;100.00
11444;BME280;5778;47.856;12.154;2023-04-01T02:48:57;95137.72;;;8.17;100.00
11444;BME280;5778;47.856;12.154;2023-04-01T02:51:25;95147.00;;;8.15;100.00
11444;BME280;5778;47.856;12.154;2023-04-01T02:54:09;95148.06;;;8.19;100.00
11444;BME280;5778;47.856;12.154;2023-04-01T02:56:36;95153.34;;;8.19;100.00
11444;BME280;5778;47.856;12.154;2023-04-01T02:59:04;95155.75;;;8.15;100.00
11444;BME280;5778;47.856;12.154;2023-04-01T03:01:31;95150.44;;;8.15;100.00
11444;BME280;5778;47.856;12.154;2023-04-01T03:04:07;95153.34;;;8.14;100.00
11444;BME280;5778;47.856;12.154;2023-04-01T03:06:34;95163.44;;;8.12;100.00
11444;BME280;5778;47.856;12.154;2023-04-01T03:09:01;95158.13;;;8.12;100.00
11444;BME280;5778;47.856;12.154;2023-04-01T03:11:30;95153.88;;;8.16;100.00
11444;BME280;5778;47.856;12.154;2023-04-01T03:21:18;95168.72;;;8.27;100.00
11444;BME280;5778;47.856;12.154;2023-04-01T03:24:02;95160.53;;;8.23;100.00
11444;BME280;5778;47.856;12.154;2023-04-01T03:26:30;95169.28;;;8.29;100.00
11444;BME280;5778;47.856;12.154;2023-04-01T03:28:58;95167.69;;;8.28;100.00
11444;BME280;5778;47.856;12.154;2023-04-01T03:31:25;95159.72;;;8.33;100.00
11444;BME280;5778;47.856;12.154;2023-04-01T03:34:29;95175.63;;;8.43;100.00
11444;BME280;5778;47.856;12.154;2023-04-01T03:36:57;95164.50;;;8.41;100.00
11444;BME280;5778;47.856;12.154;2023-04-01T03:39:24;95167.16;;;8.41;100.00
11444;BME280;5778;47.856;12.154;2023-04-01T03:41:53;95175.09;;;8.41;100.00
11444;BME280;5778;47.856;12.154;2023-04-01T03:44:38;95171.38;;;8.42;100.00
11444;BME280;5778;47.856;12.154;2023-04-01T03:47:06;95173.50;;;8.45;100.00
11444;BME280;5778;47.856;12.154;2023-04-01T03:49:34;95178.81;;;8.50;100.00
11444;BME280;5778;47.856;12.154;2023-04-01T03:52:01;95170.06;;;8.54;100.00
11444;BME280;5778;47.856;12.154;2023-04-01T03:54:30;95161.31;;;8.54;100.00
11444;BME280;5778;47.856;12.154;2023-04-01T03:56:59;95169.78;;;8.61;100.00
11444;BME280;5778;47.856;12.154;2023-04-01T03:59:28;95167.66;;;8.58;100.00
11444;BME280;5778;47.856;12.154;2023-04-01T04:01:54;95177.44;;;8.57;100.00
11444;BME280;5778;47.856;12.154;2023-04-01T04:04:28;95169.78;;;8.61;100.00
11444;BME280;5778;47.856;12.154;2023-04-01T04:06:56;95172.97;;;8.63;100.00
11444;BME280;5778;47.856;12.154;2023-04-01T04:09:24;95173.47;;;8.65;100.00
11444;BME280;5778;47.856;12.154;2023-04-01T04:11:51;95165.00;;;8.68;100.00
11444;BME280;5778;47.856;12.154;2023-04-01T04:14:22;95169.22;;;8.69;100.00
11444;BME280;5778;47.856;12.154;2023-04-01T04:16:50;95166.84;;;8.67;100.00
11444;BME280;5778;47.856;12.154;2023-04-01T04:19:16;95166.06;;;8.72;100.00
11444;BME280;5778;47.856;12.154;2023-04-01T04:21:43;95166.06;;;8.67;100.00
11444;BME280;5778;47.856;12.154;2023-04-01T04:24:36;95168.97;;;8.65;100.00
11444;BME280;5778;47.856;12.154;2023-04-01T04:27:09;95178.00;;;8.64;100.00
11444;BME280;5778;47.856;12.154;2023-04-01T04:29:45;95176.69;;;8.57;100.00
11444;BME280;5778;47.856;12.154;2023-04-01T04:32:12;95178.25;;;8.58;100.00
11444;BME280;5778;47.856;12.154;2023-04-01T04:34:39;95184.63;;;8.57;100.00
11444;BME280;5778;47.856;12.154;2023-04-01T04:37:06;95191.25;;;8.54;100.00
11444;BME280;5778;47.856;12.154;2023-04-01T04:39:35;95190.19;;;8.55;100.00
11444;BME280;5778;47.856;12.154;2023-04-01T04:42:03;95191.00;;;8.51;100.00
11444;BME280;5778;47.856;12.154;2023-04-01T04:44:54;95183.56;;;8.48;100.00
11444;BME280;5778;47.856;12.154;2023-04-01T04:47:21;95188.84;;;8.48;100.00
11444;BME280;5778;47.856;12.154;2023-04-01T04:49:48;95191.50;;;8.43;100.00
11444;BME280;5778;47.856;12.154;2023-04-01T04:52:15;95186.47;;;8.41;100.00
11444;BME280;5778;47.856;12.154;2023-04-01T04:54:58;95180.13;;;8.42;100.00
11444;BME280;5778;47.856;12.154;2023-04-01T04:57:25;95177.75;;;8.41;100.00
11444;BME280;5778;47.856;12.154;2023-04-01T04:59:56;95177.75;;;8.41;100.00
11444;BME280;5778;47.856;12.154;2023-04-01T05:03:15;95189.13;;;8.41;100.00
11444;BME280;5778;47.856;12.154;2023-04-01T05:05:49;95183.03;;;8.46;100.00
11444;BME280;5778;47.856;12.154;2023-04-01T05:08:16;95181.97;;;8.47;100.00
11444;BME280;5778;47.856;12.154;2023-04-01T05:10:43;95180.91;;;8.48;100.00
11444;BME280;5778;47.856;12.154;2023-04-01T05:16:36;95187.53;;;8.50;100.00
11444;BME280;5778;47.856;12.154;2023-04-01T05:19:03;95184.63;;;8.52;100.00
11444;BME280;5778;47.856;12.154;2023-04-01T05:21:31;95190.72;;;8.52;100.00
11444;BME280;5778;47.856;12.154;2023-04-01T05:27:05;95196.00;;;8.57;100.00
11444;BME280;5778;47.856;12.154;2023-04-01T05:29:34;95198.94;;;8.61;100.00
11444;BME280;5778;47.856;12.154;2023-04-01T05:32:06;95201.28;;;8.62;100.00
11444;BME280;5778;47.856;12.154;2023-04-01T05:34:37;95200.50;;;8.67;100.00
11444;BME280;5778;47.856;12.154;2023-04-01T05:37:04;95198.91;;;8.71;100.00
11444;BME280;5778;47.856;12.154;2023-04-01T05:39:36;95194.41;;;8.71;100.00
11444;BME280;5778;47.856;12.154;2023-04-01T05:42:03;95199.19;;;8.74;100.00
11444;BME280;5778;47.856;12.154;2023-04-01T05:44:41;95198.63;;;8.77;100.00
11444;BME280;5778;47.856;12.154;2023-04-01T05:47:09;95211.38;;;8.75;100.00
11444;BME280;5778;47.856;12.154;2023-04-01T05:49:36;95208.72;;;8.80;100.00
11444;BME280;5778;47.856;12.154;2023-04-01T05:52:04;95214.53;;;8.82;100.00
11444;BME280;5778;47.856;12.154;2023-04-01T05:54:46;95213.97;;;8.90;100.00
11444;BME280;5778;47.856;12.154;2023-04-01T05:57:13;95215.28;;;8.98;100.00
11444;BME280;5778;47.856;12.154;2023-04-01T05:59:40;95221.66;;;9.02;100.00
11444;BME280;5778;47.856;12.154;2023-04-01T06:02:09;95215.03;;;9.04;100.00
11444;BME280;5778;47.856;12.154;2023-04-01T06:04:38;95209.44;;;9.11;100.00
11444;BME280;5778;47.856;12.154;2023-04-01T06:07:11;95209.44;;;9.11;100.00
11444;BME280;5778;47.856;12.154;2023-04-01T06:09:38;95215.53;;;9.11;100.00
11444;BME280;5778;47.856;12.154;2023-04-01T06:12:35;95217.38;;;9.16;100.00
11444;BME280;5778;47.856;12.154;2023-04-01T06:15:25;95214.44;;;9.17;100.00
11444;BME280;5778;47.856;12.154;2023-04-01T06:21:07;95200.63;;;9.30;100.00
11444;BME280;5778;47.856;12.154;2023-04-01T06:24:27;95205.38;;;9.38;100.00
11444;BME280;5778;47.856;12.154;2023-04-01T06:27:03;95213.84;;;9.45;100.00
11444;BME280;5778;47.856;12.154;2023-04-01T06:29:47;95201.59;;;9.49;100.00
11444;BME280;5778;47.856;12.154;2023-04-01T06:32:35;95208.22;;;9.52;100.00
11444;BME280;5778;47.856;12.154;2023-04-01T06:35:28;95212.97;;;9.65;100.00
11444;BME280;5778;47.856;12.154;2023-04-01T06:38:31;95198.59;;;9.71;100.00
11444;BME280;5778;47.856;12.154;2023-04-01T06:44:38;95204.09;;;9.84;100.00
11444;BME280;5778;47.856;12.154;2023-04-01T06:50:26;95195.34;;;9.84;100.00
11444;BME280;5778;47.856;12.154;2023-04-01T06:53:20;95192.66;;;9.89;100.00
11444;BME280;5778;47.856;12.154;2023-04-01T06:56:09;95188.13;;;9.94;100.00
11444;BME280;5778;47.856;12.154;2023-04-01T06:58:54;95191.75;;;10.03;100.00
11444;BME280;5778;47.856;12.154;2023-04-01T07:01:25;95189.34;;;10.12;100.00
11444;BME280;5778;47.856;12.154;2023-04-01T07:04:32;95197.84;;;10.14;100.00
11444;BME280;5778;47.856;12.154;2023-04-01T07:07:04;95188.50;;;10.21;100.00
11444;BME280;5778;47.856;12.154;2023-04-01T07:09:39;95191.91;;;10.27;100.00
11444;BME280;5778;47.856;12.154;2023-04-01T07:12:33;95189.38;;;10.45;100.00
11444;BME280;5778;47.856;12.154;2023-04-01T07:15:27;95185.72;;;10.36;100.00
11444;BME280;5778;47.856;12.154;2023-04-01T07:17:58;95192.22;;;10.54;100.00
11444;BME280;5778;47.856;12.154;2023-04-01T07:20:32;95188.53;;;10.50;100.00
11444;BME280;5778;47.856;12.154;2023-04-01T07:26:47;95190.41;;;10.78;100.00
11444;BME280;5778;47.856;12.154;2023-04-01T07:29:18;95193.53;;;10.85;100.00
11444;BME280;5778;47.856;12.154;2023-04-01T07:32:07;95190.06;;;11.13;100.00
11444;BME280;5778;47.856;12.154;2023-04-01T07:34:44;95186.16;;;11.05;100.00
11444;BME280;5778;47.856;12.154;2023-04-01T07:37:18;95201.25;;;11.10;100.00
11444;BME280;5778;47.856;12.154;2023-04-01T07:39:56;95201.59;;;11.27;100.00
11444;BME280;5778;47.856;12.154;2023-04-01T07:42:44;95205.28;;;11.07;100.00
11444;BME280;5778;47.856;12.154;2023-04-01T07:45:19;95205.13;;;10.94;100.00
11444;BME280;5778;47.856;12.154;2023-04-01T07:48:01;95219.47;;;10.98;100.00
11444;BME280;5778;47.856;12.154;2023-04-01T07:50:34;95220.72;;;11.05;100.00
11444;BME280;5778;47.856;12.154;2023-04-01T07:56:31;95235.06;;;11.09;100.00
11444;BME280;5778;47.856;12.154;2023-04-01T07:59:11;95227.53;;;11.16;100.00
11444;BME280;5778;47.856;12.154;2023-04-01T08:02:03;95236.59;;;11.15;100.00
11444;BME280;5778;47.856;12.154;2023-04-01T08:05:14;95219.28;;;11.41;100.00
11444;BME280;5778;47.856;12.154;2023-04-01T08:07:49;95221.09;;;11.46;100.00
11444;BME280;5778;47.856;12.154;2023-04-01T08:11:02;95227.88;;;11.57;100.00
11444;BME280;5778;47.856;12.154;2023-04-01T08:18:04;95205.72;;;11.85;100.00
11444;BME280;5778;47.856;12.154;2023-04-01T08:20:39;95205.50;;;11.81;99.45
11444;BME280;5778;47.856;12.154;2023-04-01T08:27:12;95182.84;;;12.02;95.10
11444;BME280;5778;47.856;12.154;2023-04-01T08:30:04;95186.22;;;11.89;92.90
11444;BME280;5778;47.856;12.154;2023-04-01T08:32:36;95186.06;;;11.99;91.78
11444;BME280;5778;47.856;12.154;2023-04-01T08:35:15;95189.41;;;12.28;90.06
11444;BME280;5778;47.856;12.154;2023-04-01T08:37:48;95204.25;;;12.16;90.27
11444;BME280;5778;47.856;12.154;2023-04-01T08:40:48;95182.97;;;12.48;90.04
11444;BME280;5778;47.856;12.154;2023-04-01T08:50:15;95171.91;;;12.86;76.13
11444;BME280;5778;47.856;12.154;2023-04-01T08:56:42;95165.66;;;13.23;71.34
11444;BME280;5778;47.856;12.154;2023-04-01T08:59:27;95161.22;;;13.45;71.92
11444;BME280;5778;47.856;12.154;2023-04-01T09:02:18;95174.53;;;13.18;67.78
11444;BME280;5778;47.856;12.154;2023-04-01T09:08:15;95171.09;;;13.31;66.71
11444;BME280;5778;47.856;12.154;2023-04-01T09:11:11;95161.38;;;13.62;66.19
11444;BME280;5778;47.856;12.154;2023-04-01T09:17:38;95171.22;;;13.26;61.93
11444;BME280;5778;47.856;12.154;2023-04-01T09:20:33;95159.81;;;13.07;62.28
11444;BME280;5778;47.856;12.154;2023-04-01T09:26:44;95177.31;;;13.27;64.62
11444;BME280;5778;47.856;12.154;2023-04-01T09:29:29;95158.34;;;13.15;59.15
11444;BME280;5778;47.856;12.154;2023-04-01T09:32:12;95139.38;;;13.30;59.91
11444;BME280;5778;47.856;12.154;2023-04-01T09:35:20;95167.19;;;13.78;57.34
11444;BME280;5778;47.856;12.154;2023-04-01T09:37:53;95137.53;;;13.66;57.74
11444;BME280;5778;47.856;12.154;2023-04-01T09:40:33;95150.28;;;14.18;55.57
11444;BME280;5778;47.856;12.154;2023-04-01T09:43:28;95150.56;;;14.52;51.46
11444;BME280;5778;47.856;12.154;2023-04-01T09:46:18;95148.00;;;14.25;52.91
11444;BME280;5778;47.856;12.154;2023-04-01T09:49:13;95144.69;;;13.70;54.07
11444;BME280;5778;47.856;12.154;2023-04-01T09:51:55;95156.97;;;13.44;56.29
11444;BME280;5778;47.856;12.154;2023-04-01T09:54:51;95166.16;;;13.25;54.68
11444;BME280;5778;47.856;12.154;2023-04-01T09:57:49;95166.63;;;13.27;55.63
11444;BME280;5778;47.856;12.154;2023-04-01T10:07:33;95137.50;;;13.79;53.87
11444;BME280;5778;47.856;12.154;2023-04-01T10:17:01;95121.47;;;13.79;52.20
11444;BME280;5778;47.856;12.154;2023-04-01T10:20:02;95111.59;;;13.80;51.34
11444;BME280;5778;47.856;12.154;2023-04-01T10:23:15;95117.00;;;13.88;51.37
11444;BME280;5778;47.856;12.154;2023-04-01T10:26:10;95112.38;;;13.80;51.28
11444;BME280;5778;47.856;12.154;2023-04-01T10:35:28;95104.06;;;13.82;52.47
11444;BME280;5778;47.856;12.154;2023-04-01T10:38:41;95108.31;;;13.83;52.83
11444;BME280;5778;47.856;12.154;2023-04-01T10:41:39;95123.09;;;13.53;49.92
11444;BME280;5778;47.856;12.154;2023-04-01T10:45:08;95104.13;;;13.55;50.49
11444;BME280;5778;47.856;12.154;2023-04-01T10:48:09;95116.59;;;13.59;49.70
11444;BME280;5778;47.856;12.154;2023-04-01T10:51:00;95094.78;;;13.66;49.15
11444;BME280;5778;47.856;12.154;2023-04-01T10:54:09;95096.16;;;13.77;48.92
11444;BME280;5778;47.856;12.154;2023-04-01T10:56:56;95101.00;;;13.39;48.20
11444;BME280;5778;47.856;12.154;2023-04-01T11:10:09;95086.69;;;13.57;50.10
11444;BME280;5778;47.856;12.154;2023-04-01T11:13:27;95092.97;;;13.53;50.51
11444;BME280;5778;47.856;12.154;2023-04-01T11:16:33;95103.25;;;13.46;49.11
11444;BME280;5778;47.856;12.154;2023-04-01T11:19:49;95087.44;;;13.36;50.28
11444;BME280;5778;47.856;12.154;2023-04-01T11:22:40;95092.28;;;13.34;50.36
11444;BME280;5778;47.856;12.154;2023-04-01T11:31:37;95105.53;;;13.39;53.38
11444;BME280;5778;47.856;12.154;2023-04-01T11:34:20;95114.81;;;13.28;54.58
11444;BME280;5778;47.856;12.154;2023-04-01T11:36:58;95112.84;;;13.33;56.12
11444;BME280;5778;47.856;12.154;2023-04-01T11:39:37;95111.47;;;13.36;56.75
11444;BME280;5778;47.856;12.154;2023-04-01T11:42:34;95124.44;;;13.15;57.80
11444;BME280;5778;47.856;12.154;2023-04-01T11:45:41;95125.13;;;13.21;58.04
11444;BME280;5778;47.856;12.154;2023-04-01T11:48:36;95127.69;;;13.26;58.71
11444;BME280;5778;47.856;12.154;2023-04-01T11:51:15;95123.44;;;13.25;58.51
11444;BME280;5778;47.856;12.154;2023-04-01T11:53:54;95123.81;;;13.05;62.03
11444;BME280;5778;47.856;12.154;2023-04-01T11:56:42;95132.63;;;13.05;63.61
11444;BME280;5778;47.856;12.154;2023-04-01T12:02:25;95137.72;;;12.75;68.42
11444;BME280;5778;47.856;12.154;2023-04-01T12:05:29;95144.66;;;12.89;70.99
11444;BME280;5778;47.856;12.154;2023-04-01T12:10:58;95139.50;;;12.93;69.55
11444;BME280;5778;47.856;12.154;2023-04-01T12:13:40;95136.38;;;13.04;71.10
11444;BME280;5778;47.856;12.154;2023-04-01T12:16:44;95175.28;;;12.92;69.53
11444;BME280;5778;47.856;12.154;2023-04-01T12:19:22;95138.03;;;12.87;71.93
11444;BME280;5778;47.856;12.154;2023-04-01T12:22:00;95131.78;;;12.78;72.65
11444;BME280;5778;47.856;12.154;2023-04-01T12:28:24;95158.94;;;12.66;77.13
11444;BME280;5778;47.856;12.154;2023-04-01T12:31:02;95180.75;;;12.68;77.70
11444;BME280;5778;47.856;12.154;2023-04-01T12:33:48;95221.38;;;12.28;85.88
11444;BME280;5778;47.856;12.154;2023-04-01T12:36:40;95194.75;;;12.10;95.13
11444;BME280;5778;47.856;12.154;2023-04-01T12:39:29;95181.13;;;11.93;92.50
11444;BME280;5778;47.856;12.154;2023-04-01T12:42:07;95188.53;;;12.14;97.64
11444;BME280;5778;47.856;12.154;2023-04-01T12:45:04;95188.19;;;12.02;100.00
11444;BME280;5778;47.856;12.154;2023-04-01T12:48:08;95199.53;;;12.08;100.00
11444;BME280;5778;47.856;12.154;2023-04-01T12:51:03;95183.88;;;12.06;96.84
11444;BME280;5778;47.856;12.154;2023-04-01T12:57:51;95187.72;;;12.32;99.22
11444;BME280;5778;47.856;12.154;2023-04-01T13:00:30;95217.22;;;12.04;100.00
11444;BME280;5778;47.856;12.154;2023-04-01T13:03:15;95212.94;;;12.21;100.00
11444;BME280;5778;47.856;12.154;2023-04-01T13:08:44;95236.41;;;11.59;100.00
11444;BME280;5778;47.856;12.154;2023-04-01T13:11:20;95231.53;;;11.42;100.00
11444;BME280;5778;47.856;12.154;2023-04-01T13:14:29;95236.50;;;11.25;100.00
11444;BME280;5778;47.856;12.154;2023-04-01T13:17:07;95248.00;;;11.16;100.00
11444;BME280;5778;47.856;12.154;2023-04-01T13:19:45;95296.34;;;10.99;100.00
11444;BME280;5778;47.856;12.154;2023-04-01T13:22:21;95266.88;;;10.91;100.00
11444;BME280;5778;47.856;12.154;2023-04-01T13:25:00;95252.66;;;11.05;100.00
11444;BME280;5778;47.856;12.154;2023-04-01T13:27:35;95270.28;;;10.96;100.00
11444;BME280;5778;47.856;12.154;2023-04-01T13:30:20;95260.28;;;10.83;100.00
11444;BME280;5778;47.856;12.154;2023-04-01T13:36:19;95263.06;;;10.68;100.00
11444;BME280;5778;47.856;12.154;2023-04-01T13:39:20;95281.75;;;10.58;100.00
11444;BME280;5778;47.856;12.154;2023-04-01T13:42:04;95266.44;;;10.45;100.00
11444;BME280;5778;47.856;12.154;2023-04-01T13:44:45;95261.28;;;10.59;100.00
11444;BME280;5778;47.856;12.154;2023-04-01T13:47:28;95262.88;;;10.60;100.00
11444;BME280;5778;47.856;12.154;2023-04-01T13:50:33;95260.59;;;10.77;100.00
11444;BME280;5778;47.856;12.154;2023-04-01T13:56:23;95268.25;;;10.50;100.00
11444;BME280;5778;47.856;12.154;2023-04-01T13:59:07;95269.72;;;10.32;100.00
11444;BME280;5778;47.856;12.154;2023-04-01T14:01:42;95268.81;;;10.47;100.00
11444;BME280;5778;47.856;12.154;2023-04-01T14:04:39;95274.94;;;10.42;100.00
11444;BME280;5778;47.856;12.154;2023-04-01T14:07:31;95274.75;;;10.29;100.00
11444;BME280;5778;47.856;12.154;2023-04-01T14:10:07;95269.53;;;10.19;100.00
11444;BME280;5778;47.856;12.154;2023-04-01T14:12:44;95271.72;;;10.07;100.00
11444;BME280;5778;47.856;12.154;2023-04-01T14:15:29;95264.03;;;10.05;100.00
11444;BME280;5778;47.856;12.154;2023-04-01T14:18:11;95274.91;;;9.99;100.00
11444;BME280;5778;47.856;12.154;2023-04-01T14:20:48;95276.59;;;9.80;100.00
11444;BME280;5778;47.856;12.154;2023-04-01T14:23:45;95274.97;;;9.89;100.00
11444;BME280;5778;47.856;12.154;2023-04-01T14:26:30;95274.53;;;9.67;100.00
11444;BME280;5778;47.856;12.154;2023-04-01T14:29:10;95270.06;;;9.57;100.00
11444;BME280;5778;47.856;12.154;2023-04-01T14:31:50;95272.72;;;9.57;100.00
11444;BME280;5778;47.856;12.154;2023-04-01T14:40:52;95264.19;;;9.55;100.00
11444;BME280;5778;47.856;12.154;2023-04-01T14:50:04;95257.56;;;9.58;100.00
11444;BME280;5778;47.856;12.154;2023-04-01T14:52:36;95270.06;;;9.57;100.00
11444;BME280;5778;47.856;12.154;2023-04-01T14:55:20;95261.81;;;9.59;100.00
11444;BME280;5778;47.856;12.154;2023-04-01T14:58:00;95268.19;;;9.58;100.00
11444;BME280;5778;47.856;12.154;2023-04-01T15:00:42;95257.84;;;9.56;100.00
11444;BME280;5778;47.856;12.154;2023-04-01T15:07:00;95270.34;;;9.46;100.00
11444;BME280;5778;47.856;12.154;2023-04-01T15:09:36;95269.81;;;9.49;100.00
11444;BME280;5778;47.856;12.154;2023-04-01T15:12:18;95272.22;;;9.50;100.00
11444;BME280;5778;47.856;12.154;2023-04-01T15:15:14;95270.88;;;9.48;100.00
11444;BME280;5778;47.856;12.154;2023-04-01T15:17:49;95280.44;;;9.49;100.00
11444;BME280;5778;47.856;12.154;2023-04-01T15:20:51;95278.84;;;9.48;100.00
11444;BME280;5778;47.856;12.154;2023-04-01T15:27:10;95290.00;;;9.35;100.00
11444;BME280;5778;47.856;12.154;2023-04-01T15:30:02;95290.56;;;9.32;100.00
11444;BME280;5778;47.856;12.154;2023-04-01T15:32:42;95296.94;;;9.26;100.00
11444;BME280;5778;47.856;12.154;2023-04-01T15:35:24;95318.94;;;9.21;100.00
11444;BME280;5778;47.856;12.154;2023-04-01T15:38:04;95331.16;;;9.12;100.00
11444;BME280;5778;47.856;12.154;2023-04-01T15:40:38;95314.97;;;9.09;100.00
11444;BME280;5778;47.856;12.154;2023-04-01T15:43:36;95288.44;;;9.14;100.00
11444;BME280;5778;47.856;12.154;2023-04-01T15:46:30;95289.78;;;9.06;100.00
11444;BME280;5778;47.856;12.154;2023-04-01T15:49:14;95295.09;;;9.11;100.00
11444;BME280;5778;47.856;12.154;2023-04-01T15:51:51;95292.16;;;9.13;100.00
11444;BME280;5778;47.856;12.154;2023-04-01T15:55:00;95300.91;;;9.23;100.00
11444;BME280;5778;47.856;12.154;2023-04-01T15:57:40;95285.25;;;9.32;100.00
11444;BME280;5778;47.856;12.154;2023-04-01T16:00:23;95289.47;;;9.38;100.00
11444;BME280;5778;47.856;12.154;2023-04-01T16:07:04;95287.31;;;9.50;100.00
11444;BME280;5778;47.856;12.154;2023-04-01T16:09:43;95275.88;;;9.54;100.00
11444;BME280;5778;47.856;12.154;2023-04-01T16:12:18;95281.19;;;9.59;100.00
11444;BME280;5778;47.856;12.154;2023-04-01T16:18:21;95288.91;;;9.46;100.00
11444;BME280;5778;47.856;12.154;2023-04-01T16:20:54;95303.25;;;9.45;100.00
11444;BME280;5778;47.856;12.154;2023-04-01T16:23:59;95293.97;;;9.42;100.00
11444;BME280;5778;47.856;12.154;2023-04-01T16:26:32;95304.34;;;9.39;100.00
11444;BME280;5778;47.856;12.154;2023-04-01T16:29:08;95310.69;;;9.43;100.00
11444;BME280;5778;47.856;12.154;2023-04-01T16:31:43;95310.34;;;9.74;100.00
11444;BME280;5778;47.856;12.154;2023-04-01T16:34:25;95312.97;;;9.79;100.00
11444;BME280;5778;47.856;12.154;2023-04-01T16:37:00;95309.41;;;10.14;100.00
11444;BME280;5778;47.856;12.154;2023-04-01T16:39:36;95313.63;;;10.20;100.00
11444;BME280;5778;47.856;12.154;2023-04-01T16:42:19;95313.91;;;10.13;100.00
11444;BME280;5778;47.856;12.154;2023-04-01T16:44:59;95312.09;;;10.09;100.00
11444;BME280;5778;47.856;12.154;2023-04-01T16:47:30;95315.25;;;10.01;100.00
11444;BME280;5778;47.856;12.154;2023-04-01T16:49:59;95307.63;;;9.94;100.00
11444;BME280;5778;47.856;12.154;2023-04-01T16:52:36;95322.75;;;9.94;100.00
11444;BME280;5778;47.856;12.154;2023-04-01T16:55:15;95322.75;;;9.89;100.00